sensor_id;sensor_type;location;lat;lon;timestamp;pressure;altitude;pressure_sealevel;temperature;humidity
47983;BME280;33751;50.816;-1.214;2022-08-01T00:02:20;101806.38;;;19.39;100.00
47983;BME280;33751;50.816;-1.214;2022-08-01T00:04:46;101808.04;;;19.57;100.00
47983;BME280;33751;50.816;-1.214;2022-08-01T00:07:14;101807.24;;;19.45;100.00
47983;BME280;33751;50.816;-1.214;2022-08-01T00:09:41;101804.04;;;19.78;100.00
47983;BME280;33751;50.816;-1.214;2022-08-01T00:12:09;101800.75;;;19.46;100.00
47983;BME280;33751;50.816;-1.214;2022-08-01T00:14:37;101797.05;;;19.46;100.00
47983;BME280;33751;50.816;-1.214;2022-08-01T00:17:04;101793.88;;;19.77;100.00
47983;BME280;33751;50.816;-1.214;2022-08-01T00:19:31;101801.65;;;19.43;100.00
47983;BME280;33751;50.816;-1.214;2022-08-01T00:21:58;101805.13;;;19.64;100.00
47983;BME280;33751;50.816;-1.214;2022-08-01T00:24:25;101807.23;;;19.55;100.00
47983;BME280;33751;50.816;-1.214;2022-08-01T00:26:52;101809.07;;;18.95;100.00
47983;BME280;33751;50.816;-1.214;2022-08-01T00:29:19;101804.20;;;19.54;100.00
47983;BME280;33751;50.816;-1.214;2022-08-01T00:31:46;101800.82;;;19.34;100.00
47983;BME280;33751;50.816;-1.214;2022-08-01T00:34:12;101799.13;;;19.51;100.00
47983;BME280;33751;50.816;-1.214;2022-08-01T00:36:39;101799.01;;;19.51;100.00
47983;BME280;33751;50.816;-1.214;2022-08-01T00:39:06;101799.79;;;19.29;100.00
47983;BME280;33751;50.816;-1.214;2022-08-01T00:41:34;101800.53;;;19.54;100.00
47983;BME280;33751;50.816;-1.214;2022-08-01T00:44:03;101798.44;;;19.02;100.00
47983;BME280;33751;50.816;-1.214;2022-08-01T00:46:30;101803.09;;;18.94;100.00
47983;BME280;33751;50.816;-1.214;2022-08-01T00:48:58;101800.96;;;19.16;100.00
47983;BME280;33751;50.816;-1.214;2022-08-01T00:51:26;101797.30;;;19.11;100.00
47983;BME280;33751;50.816;-1.214;2022-08-01T00:53:53;101795.76;;;19.25;100.00
47983;BME280;33751;50.816;-1.214;2022-08-01T00:56:23;101798.77;;;18.86;100.00
47983;BME280;33751;50.816;-1.214;2022-08-01T00:58:51;101797.70;;;18.93;100.00
47983;BME280;33751;50.816;-1.214;2022-08-01T01:01:18;101797.02;;;19.30;100.00
47983;BME280;33751;50.816;-1.214;2022-08-01T01:03:45;101796.04;;;18.93;100.00
47983;BME280;33751;50.816;-1.214;2022-08-01T01:06:23;101794.28;;;19.28;100.00
47983;BME280;33751;50.816;-1.214;2022-08-01T01:08:58;101795.46;;;19.35;100.00
47983;BME280;33751;50.816;-1.214;2022-08-01T01:11:39;101798.27;;;19.12;100.00
47983;BME280;33751;50.816;-1.214;2022-08-01T01:14:16;101797.96;;;19.21;100.00
47983;BME280;33751;50.816;-1.214;2022-08-01T01:16:48;101803.73;;;19.06;100.00
47983;BME280;33751;50.816;-1.214;2022-08-01T01:19:23;101805.03;;;18.96;100.00
47983;BME280;33751;50.816;-1.214;2022-08-01T01:22:06;101809.73;;;18.99;100.00
47983;BME280;33751;50.816;-1.214;2022-08-01T01:24:39;101808.49;;;18.97;100.00
47983;BME280;33751;50.816;-1.214;2022-08-01T01:27:16;101798.25;;;18.84;100.00
47983;BME280;33751;50.816;-1.214;2022-08-01T01:29:49;101800.26;;;18.93;100.00
47983;BME280;33751;50.816;-1.214;2022-08-01T01:32:20;101800.45;;;19.25;100.00
47983;BME280;33751;50.816;-1.214;2022-08-01T01:34:50;101800.97;;;18.91;100.00
47983;BME280;33751;50.816;-1.214;2022-08-01T01:37:23;101797.85;;;18.84;100.00
47983;BME280;33751;50.816;-1.214;2022-08-01T01:39:53;101797.44;;;18.91;100.00
47983;BME280;33751;50.816;-1.214;2022-08-01T01:42:22;101792.23;;;19.01;100.00
47983;BME280;33751;50.816;-1.214;2022-08-01T01:44:51;101794.33;;;18.77;100.00
47983;BME280;33751;50.816;-1.214;2022-08-01T01:47:19;101793.15;;;18.68;100.00
47983;BME280;33751;50.816;-1.214;2022-08-01T01:49:48;101790.74;;;18.62;100.00
47983;BME280;33751;50.816;-1.214;2022-08-01T01:52:17;101788.15;;;18.49;100.00
47983;BME280;33751;50.816;-1.214;2022-08-01T01:54:47;101782.46;;;18.54;100.00
47983;BME280;33751;50.816;-1.214;2022-08-01T01:57:17;101785.14;;;18.78;100.00
47983;BME280;33751;50.816;-1.214;2022-08-01T01:59:46;101785.42;;;18.58;100.00
47983;BME280;33751;50.816;-1.214;2022-08-01T02:02:15;101787.49;;;18.35;100.00
47983;BME280;33751;50.816;-1.214;2022-08-01T02:04:45;101785.45;;;18.34;100.00
47983;BME280;33751;50.816;-1.214;2022-08-01T02:07:14;101782.54;;;18.73;100.00
47983;BME280;33751;50.816;-1.214;2022-08-01T02:09:43;101780.50;;;18.24;100.00
47983;BME280;33751;50.816;-1.214;2022-08-01T02:12:12;101776.58;;;18.45;100.00
47983;BME280;33751;50.816;-1.214;2022-08-01T02:14:41;101775.47;;;18.40;100.00
47983;BME280;33751;50.816;-1.214;2022-08-01T02:17:10;101776.04;;;18.40;100.00
47983;BME280;33751;50.816;-1.214;2022-08-01T02:19:37;101775.65;;;18.18;100.00
47983;BME280;33751;50.816;-1.214;2022-08-01T02:22:09;101775.46;;;18.28;100.00
47983;BME280;33751;50.816;-1.214;2022-08-01T02:24:42;101775.25;;;18.33;100.00
47983;BME280;33751;50.816;-1.214;2022-08-01T02:27:12;101775.43;;;18.27;100.00
47983;BME280;33751;50.816;-1.214;2022-08-01T02:29:45;101778.60;;;18.51;100.00
47983;BME280;33751;50.816;-1.214;2022-08-01T02:32:25;101777.04;;;18.45;100.00
47983;BME280;33751;50.816;-1.214;2022-08-01T02:34:53;101777.75;;;18.21;100.00
47983;BME280;33751;50.816;-1.214;2022-08-01T02:37:24;101778.27;;;18.00;100.00
47983;BME280;33751;50.816;-1.214;2022-08-01T02:39:54;101776.73;;;18.14;100.00
47983;BME280;33751;50.816;-1.214;2022-08-01T02:42:23;101775.29;;;17.98;100.00
47983;BME280;33751;50.816;-1.214;2022-08-01T02:44:51;101774.85;;;17.94;100.00
47983;BME280;33751;50.816;-1.214;2022-08-01T02:47:20;101775.50;;;18.03;100.00
47983;BME280;33751;50.816;-1.214;2022-08-01T02:49:50;101777.81;;;18.20;100.00
47983;BME280;33751;50.816;-1.214;2022-08-01T02:52:20;101775.32;;;18.02;100.00
47983;BME280;33751;50.816;-1.214;2022-08-01T02:54:51;101770.81;;;18.05;100.00
47983;BME280;33751;50.816;-1.214;2022-08-01T02:57:20;101774.09;;;18.16;100.00
47983;BME280;33751;50.816;-1.214;2022-08-01T02:59:49;101770.28;;;18.08;100.00
47983;BME280;33751;50.816;-1.214;2022-08-01T03:02:17;101771.12;;;17.90;100.00
47983;BME280;33751;50.816;-1.214;2022-08-01T03:04:47;101772.26;;;17.98;100.00
47983;BME280;33751;50.816;-1.214;2022-08-01T03:07:16;101770.75;;;18.10;100.00
47983;BME280;33751;50.816;-1.214;2022-08-01T03:09:45;101773.00;;;18.37;100.00
47983;BME280;33751;50.816;-1.214;2022-08-01T03:12:15;101769.65;;;18.20;100.00
47983;BME280;33751;50.816;-1.214;2022-08-01T03:14:46;101769.45;;;18.08;100.00
47983;BME280;33751;50.816;-1.214;2022-08-01T03:17:15;101766.90;;;17.94;100.00
47983;BME280;33751;50.816;-1.214;2022-08-01T03:19:45;101765.49;;;17.91;100.00
47983;BME280;33751;50.816;-1.214;2022-08-01T03:22:13;101763.82;;;17.91;100.00
47983;BME280;33751;50.816;-1.214;2022-08-01T03:24:42;101766.58;;;17.46;100.00
47983;BME280;33751;50.816;-1.214;2022-08-01T03:27:11;101766.71;;;17.49;100.00
47983;BME280;33751;50.816;-1.214;2022-08-01T03:29:41;101765.22;;;17.55;100.00
47983;BME280;33751;50.816;-1.214;2022-08-01T03:32:11;101762.22;;;17.56;100.00
47983;BME280;33751;50.816;-1.214;2022-08-01T03:34:40;101762.67;;;17.53;100.00
47983;BME280;33751;50.816;-1.214;2022-08-01T03:37:10;101759.61;;;17.70;100.00
47983;BME280;33751;50.816;-1.214;2022-08-01T03:39:44;101752.44;;;17.21;100.00
47983;BME280;33751;50.816;-1.214;2022-08-01T03:42:17;101755.51;;;17.31;100.00
47983;BME280;33751;50.816;-1.214;2022-08-01T03:44:51;101760.43;;;17.26;100.00
47983;BME280;33751;50.816;-1.214;2022-08-01T03:47:24;101762.86;;;17.56;100.00
47983;BME280;33751;50.816;-1.214;2022-08-01T03:49:54;101759.56;;;17.73;100.00
47983;BME280;33751;50.816;-1.214;2022-08-01T03:52:24;101757.83;;;17.67;100.00
47983;BME280;33751;50.816;-1.214;2022-08-01T03:54:55;101756.03;;;17.63;100.00
47983;BME280;33751;50.816;-1.214;2022-08-01T03:57:23;101759.83;;;17.55;100.00
47983;BME280;33751;50.816;-1.214;2022-08-01T03:59:51;101759.13;;;17.02;100.00
47983;BME280;33751;50.816;-1.214;2022-08-01T04:02:19;101761.04;;;16.99;100.00
47983;BME280;33751;50.816;-1.214;2022-08-01T04:04:47;101765.41;;;17.62;100.00
47983;BME280;33751;50.816;-1.214;2022-08-01T04:07:22;101766.52;;;17.43;100.00
47983;BME280;33751;50.816;-1.214;2022-08-01T04:09:49;101767.11;;;17.20;100.00
47983;BME280;33751;50.816;-1.214;2022-08-01T04:12:16;101767.96;;;17.23;100.00
47983;BME280;33751;50.816;-1.214;2022-08-01T04:14:44;101765.67;;;17.24;100.00
47983;BME280;33751;50.816;-1.214;2022-08-01T04:17:11;101769.36;;;17.47;100.00
47983;BME280;33751;50.816;-1.214;2022-08-01T04:19:38;101775.32;;;17.42;100.00
47983;BME280;33751;50.816;-1.214;2022-08-01T04:22:06;101775.24;;;17.32;100.00
47983;BME280;33751;50.816;-1.214;2022-08-01T04:24:36;101774.19;;;17.29;100.00
47983;BME280;33751;50.816;-1.214;2022-08-01T04:27:07;101768.52;;;17.64;100.00
47983;BME280;33751;50.816;-1.214;2022-08-01T04:29:37;101768.18;;;16.97;100.00
47983;BME280;33751;50.816;-1.214;2022-08-01T04:32:06;101770.72;;;17.14;100.00
47983;BME280;33751;50.816;-1.214;2022-08-01T04:34:34;101768.63;;;17.52;100.00
47983;BME280;33751;50.816;-1.214;2022-08-01T04:37:04;101768.95;;;17.32;100.00
47983;BME280;33751;50.816;-1.214;2022-08-01T04:39:34;101769.49;;;17.24;100.00
47983;BME280;33751;50.816;-1.214;2022-08-01T04:42:01;101772.80;;;17.61;100.00
47983;BME280;33751;50.816;-1.214;2022-08-01T04:44:28;101774.41;;;17.31;100.00
47983;BME280;33751;50.816;-1.214;2022-08-01T04:46:55;101775.96;;;17.94;100.00
47983;BME280;33751;50.816;-1.214;2022-08-01T04:49:23;101773.97;;;17.86;100.00
47983;BME280;33751;50.816;-1.214;2022-08-01T04:51:52;101774.53;;;17.47;100.00
47983;BME280;33751;50.816;-1.214;2022-08-01T04:54:19;101772.16;;;17.62;100.00
47983;BME280;33751;50.816;-1.214;2022-08-01T04:56:45;101769.84;;;17.62;100.00
47983;BME280;33751;50.816;-1.214;2022-08-01T04:59:12;101771.21;;;17.61;100.00
47983;BME280;33751;50.816;-1.214;2022-08-01T05:01:38;101773.53;;;17.80;100.00
47983;BME280;33751;50.816;-1.214;2022-08-01T05:04:05;101776.80;;;17.64;100.00
47983;BME280;33751;50.816;-1.214;2022-08-01T05:06:32;101777.98;;;17.83;100.00
47983;BME280;33751;50.816;-1.214;2022-08-01T05:08:59;101783.25;;;17.74;100.00
47983;BME280;33751;50.816;-1.214;2022-08-01T05:11:25;101784.26;;;17.96;100.00
47983;BME280;33751;50.816;-1.214;2022-08-01T05:13:52;101784.79;;;18.08;100.00
47983;BME280;33751;50.816;-1.214;2022-08-01T05:16:18;101790.44;;;18.24;100.00
47983;BME280;33751;50.816;-1.214;2022-08-01T05:18:45;101791.49;;;18.25;100.00
47983;BME280;33751;50.816;-1.214;2022-08-01T05:21:11;101792.74;;;18.46;100.00
47983;BME280;33751;50.816;-1.214;2022-08-01T05:23:39;101796.95;;;18.52;100.00
47983;BME280;33751;50.816;-1.214;2022-08-01T05:26:05;101801.55;;;18.31;100.00
47983;BME280;33751;50.816;-1.214;2022-08-01T05:28:32;101804.64;;;18.51;100.00
47983;BME280;33751;50.816;-1.214;2022-08-01T05:30:59;101806.14;;;18.45;100.00
47983;BME280;33751;50.816;-1.214;2022-08-01T05:33:26;101807.26;;;18.10;100.00
47983;BME280;33751;50.816;-1.214;2022-08-01T05:35:53;101805.96;;;18.61;100.00
47983;BME280;33751;50.816;-1.214;2022-08-01T05:38:19;101808.84;;;18.53;100.00
47983;BME280;33751;50.816;-1.214;2022-08-01T05:40:46;101813.81;;;18.50;100.00
47983;BME280;33751;50.816;-1.214;2022-08-01T05:43:13;101818.06;;;18.63;100.00
47983;BME280;33751;50.816;-1.214;2022-08-01T05:45:40;101819.02;;;18.36;100.00
47983;BME280;33751;50.816;-1.214;2022-08-01T05:48:07;101822.96;;;18.41;100.00
47983;BME280;33751;50.816;-1.214;2022-08-01T05:50:34;101820.62;;;18.59;100.00
47983;BME280;33751;50.816;-1.214;2022-08-01T05:53:02;101820.90;;;18.42;100.00
47983;BME280;33751;50.816;-1.214;2022-08-01T05:55:29;101819.56;;;18.67;100.00
47983;BME280;33751;50.816;-1.214;2022-08-01T05:57:56;101817.80;;;18.76;100.00
47983;BME280;33751;50.816;-1.214;2022-08-01T06:00:23;101821.21;;;18.72;100.00
47983;BME280;33751;50.816;-1.214;2022-08-01T06:02:49;101819.42;;;19.05;100.00
47983;BME280;33751;50.816;-1.214;2022-08-01T06:05:16;101823.27;;;18.76;100.00
47983;BME280;33751;50.816;-1.214;2022-08-01T06:07:43;101823.23;;;19.06;100.00
47983;BME280;33751;50.816;-1.214;2022-08-01T06:10:10;101825.68;;;19.19;100.00
47983;BME280;33751;50.816;-1.214;2022-08-01T06:12:37;101826.95;;;19.53;100.00
47983;BME280;33751;50.816;-1.214;2022-08-01T06:15:05;101827.32;;;19.33;100.00
47983;BME280;33751;50.816;-1.214;2022-08-01T06:17:33;101826.40;;;18.99;100.00
47983;BME280;33751;50.816;-1.214;2022-08-01T06:19:59;101824.59;;;19.10;100.00
47983;BME280;33751;50.816;-1.214;2022-08-01T06:22:27;101824.24;;;18.81;100.00
47983;BME280;33751;50.816;-1.214;2022-08-01T06:24:53;101823.21;;;19.31;100.00
47983;BME280;33751;50.816;-1.214;2022-08-01T06:27:20;101825.56;;;19.27;100.00
47983;BME280;33751;50.816;-1.214;2022-08-01T06:29:47;101826.59;;;19.16;100.00
47983;BME280;33751;50.816;-1.214;2022-08-01T06:32:14;101826.94;;;19.29;100.00
47983;BME280;33751;50.816;-1.214;2022-08-01T06:34:41;101826.09;;;19.58;100.00
47983;BME280;33751;50.816;-1.214;2022-08-01T06:37:08;101824.26;;;19.44;100.00
47983;BME280;33751;50.816;-1.214;2022-08-01T06:39:35;101823.74;;;19.53;100.00
47983;BME280;33751;50.816;-1.214;2022-08-01T06:42:02;101827.89;;;19.65;100.00
47983;BME280;33751;50.816;-1.214;2022-08-01T06:44:29;101833.73;;;19.46;100.00
47983;BME280;33751;50.816;-1.214;2022-08-01T06:46:56;101835.12;;;19.60;100.00
47983;BME280;33751;50.816;-1.214;2022-08-01T06:49:24;101838.73;;;19.63;100.00
47983;BME280;33751;50.816;-1.214;2022-08-01T06:51:51;101835.39;;;19.19;100.00
47983;BME280;33751;50.816;-1.214;2022-08-01T06:54:18;101829.80;;;19.79;100.00
47983;BME280;33751;50.816;-1.214;2022-08-01T06:56:45;101827.25;;;20.16;100.00
47983;BME280;33751;50.816;-1.214;2022-08-01T06:59:12;101829.18;;;19.97;100.00
47983;BME280;33751;50.816;-1.214;2022-08-01T07:01:39;101828.65;;;19.96;100.00
47983;BME280;33751;50.816;-1.214;2022-08-01T07:04:06;101829.46;;;19.78;100.00
47983;BME280;33751;50.816;-1.214;2022-08-01T07:06:33;101831.57;;;20.46;100.00
47983;BME280;33751;50.816;-1.214;2022-08-01T07:09:00;101836.67;;;19.72;100.00
47983;BME280;33751;50.816;-1.214;2022-08-01T07:11:27;101839.94;;;19.73;100.00
47983;BME280;33751;50.816;-1.214;2022-08-01T07:13:54;101834.34;;;19.54;100.00
47983;BME280;33751;50.816;-1.214;2022-08-01T07:16:20;101833.29;;;19.48;100.00
47983;BME280;33751;50.816;-1.214;2022-08-01T07:18:47;101826.28;;;19.87;100.00
47983;BME280;33751;50.816;-1.214;2022-08-01T07:21:14;101825.63;;;20.05;100.00
47983;BME280;33751;50.816;-1.214;2022-08-01T07:23:41;101824.21;;;20.26;100.00
47983;BME280;33751;50.816;-1.214;2022-08-01T07:26:08;101825.98;;;20.34;100.00
47983;BME280;33751;50.816;-1.214;2022-08-01T07:28:34;101824.98;;;20.01;100.00
47983;BME280;33751;50.816;-1.214;2022-08-01T07:31:01;101821.81;;;20.78;100.00
47983;BME280;33751;50.816;-1.214;2022-08-01T07:33:27;101824.26;;;20.57;100.00
47983;BME280;33751;50.816;-1.214;2022-08-01T07:35:54;101828.07;;;20.10;100.00
47983;BME280;33751;50.816;-1.214;2022-08-01T07:38:21;101830.16;;;20.29;100.00
47983;BME280;33751;50.816;-1.214;2022-08-01T07:40:48;101829.06;;;19.96;100.00
47983;BME280;33751;50.816;-1.214;2022-08-01T07:43:15;101826.25;;;20.07;100.00
47983;BME280;33751;50.816;-1.214;2022-08-01T07:45:42;101834.34;;;20.75;100.00
47983;BME280;33751;50.816;-1.214;2022-08-01T07:48:09;101836.78;;;20.74;100.00
47983;BME280;33751;50.816;-1.214;2022-08-01T07:50:37;101839.49;;;20.62;100.00
47983;BME280;33751;50.816;-1.214;2022-08-01T07:53:04;101845.04;;;20.55;100.00
47983;BME280;33751;50.816;-1.214;2022-08-01T07:55:32;101848.16;;;20.40;100.00
47983;BME280;33751;50.816;-1.214;2022-08-01T07:57:59;101851.90;;;20.08;100.00
47983;BME280;33751;50.816;-1.214;2022-08-01T08:00:26;101854.76;;;20.27;100.00
47983;BME280;33751;50.816;-1.214;2022-08-01T08:02:53;101858.51;;;20.35;100.00
47983;BME280;33751;50.816;-1.214;2022-08-01T08:05:21;101863.40;;;20.05;100.00
47983;BME280;33751;50.816;-1.214;2022-08-01T08:07:48;101868.39;;;19.78;100.00
47983;BME280;33751;50.816;-1.214;2022-08-01T08:10:15;101868.80;;;20.15;100.00
47983;BME280;33751;50.816;-1.214;2022-08-01T08:12:42;101867.28;;;19.74;100.00
47983;BME280;33751;50.816;-1.214;2022-08-01T08:15:10;101861.96;;;20.24;100.00
47983;BME280;33751;50.816;-1.214;2022-08-01T08:17:37;101865.05;;;20.08;100.00
47983;BME280;33751;50.816;-1.214;2022-08-01T08:20:06;101866.40;;;20.17;100.00
47983;BME280;33751;50.816;-1.214;2022-08-01T08:22:33;101864.89;;;20.24;100.00
47983;BME280;33751;50.816;-1.214;2022-08-01T08:25:00;101860.68;;;20.73;100.00
47983;BME280;33751;50.816;-1.214;2022-08-01T08:27:27;101863.38;;;20.50;100.00
47983;BME280;33751;50.816;-1.214;2022-08-01T08:29:55;101859.20;;;20.94;100.00
47983;BME280;33751;50.816;-1.214;2022-08-01T08:32:22;101858.59;;;20.67;100.00
47983;BME280;33751;50.816;-1.214;2022-08-01T08:34:48;101859.31;;;20.86;100.00
47983;BME280;33751;50.816;-1.214;2022-08-01T08:37:15;101858.18;;;20.85;100.00
47983;BME280;33751;50.816;-1.214;2022-08-01T08:39:42;101858.60;;;20.70;100.00
47983;BME280;33751;50.816;-1.214;2022-08-01T08:42:11;101862.20;;;20.49;100.00
47983;BME280;33751;50.816;-1.214;2022-08-01T08:44:40;101868.29;;;20.86;100.00
47983;BME280;33751;50.816;-1.214;2022-08-01T08:47:08;101862.41;;;20.89;100.00
47983;BME280;33751;50.816;-1.214;2022-08-01T08:49:37;101860.51;;;20.43;100.00
47983;BME280;33751;50.816;-1.214;2022-08-01T08:52:04;101859.32;;;20.49;100.00
47983;BME280;33751;50.816;-1.214;2022-08-01T08:54:32;101852.05;;;20.55;100.00
47983;BME280;33751;50.816;-1.214;2022-08-01T08:57:00;101858.05;;;21.14;100.00
47983;BME280;33751;50.816;-1.214;2022-08-01T08:59:28;101855.85;;;20.84;100.00
47983;BME280;33751;50.816;-1.214;2022-08-01T09:01:56;101852.96;;;20.91;100.00
47983;BME280;33751;50.816;-1.214;2022-08-01T09:04:23;101855.22;;;20.51;100.00
47983;BME280;33751;50.816;-1.214;2022-08-01T09:06:51;101853.77;;;21.29;100.00
47983;BME280;33751;50.816;-1.214;2022-08-01T09:09:18;101860.92;;;21.11;100.00
47983;BME280;33751;50.816;-1.214;2022-08-01T09:11:45;101864.63;;;20.72;100.00
47983;BME280;33751;50.816;-1.214;2022-08-01T09:14:13;101864.35;;;20.87;100.00
47983;BME280;33751;50.816;-1.214;2022-08-01T09:16:43;101870.13;;;20.49;100.00
47983;BME280;33751;50.816;-1.214;2022-08-01T09:19:12;101872.43;;;20.80;100.00
47983;BME280;33751;50.816;-1.214;2022-08-01T09:21:39;101868.70;;;20.72;100.00
47983;BME280;33751;50.816;-1.214;2022-08-01T09:24:15;101871.44;;;20.94;100.00
47983;BME280;33751;50.816;-1.214;2022-08-01T09:26:43;101870.66;;;21.26;100.00
47983;BME280;33751;50.816;-1.214;2022-08-01T09:29:18;101869.48;;;20.98;100.00
47983;BME280;33751;50.816;-1.214;2022-08-01T09:31:46;101865.69;;;21.18;100.00
47983;BME280;33751;50.816;-1.214;2022-08-01T09:34:13;101866.42;;;21.22;100.00
47983;BME280;33751;50.816;-1.214;2022-08-01T09:36:47;101867.55;;;21.19;100.00
47983;BME280;33751;50.816;-1.214;2022-08-01T09:39:15;101873.91;;;21.54;100.00
47983;BME280;33751;50.816;-1.214;2022-08-01T09:41:42;101874.18;;;21.52;100.00
47983;BME280;33751;50.816;-1.214;2022-08-01T09:44:09;101876.27;;;21.35;100.00
47983;BME280;33751;50.816;-1.214;2022-08-01T09:46:49;101878.28;;;21.77;100.00
47983;BME280;33751;50.816;-1.214;2022-08-01T09:49:27;101881.14;;;22.09;100.00
47983;BME280;33751;50.816;-1.214;2022-08-01T09:51:54;101884.26;;;21.79;100.00
47983;BME280;33751;50.816;-1.214;2022-08-01T09:54:32;101886.52;;;22.05;100.00
47983;BME280;33751;50.816;-1.214;2022-08-01T09:57:17;101883.62;;;21.83;100.00
47983;BME280;33751;50.816;-1.214;2022-08-01T09:59:47;101877.57;;;22.71;100.00
47983;BME280;33751;50.816;-1.214;2022-08-01T10:02:28;101877.41;;;23.42;100.00
47983;BME280;33751;50.816;-1.214;2022-08-01T10:04:56;101877.10;;;23.34;100.00
47983;BME280;33751;50.816;-1.214;2022-08-01T10:07:24;101873.06;;;23.12;100.00
47983;BME280;33751;50.816;-1.214;2022-08-01T10:09:51;101866.74;;;23.64;100.00
47983;BME280;33751;50.816;-1.214;2022-08-01T10:12:21;101859.87;;;24.01;100.00
47983;BME280;33751;50.816;-1.214;2022-08-01T10:14:49;101862.27;;;24.16;100.00
47983;BME280;33751;50.816;-1.214;2022-08-01T10:17:18;101850.86;;;24.89;100.00
47983;BME280;33751;50.816;-1.214;2022-08-01T10:19:46;101850.04;;;25.27;100.00
47983;BME280;33751;50.816;-1.214;2022-08-01T10:22:14;101863.36;;;24.91;100.00
47983;BME280;33751;50.816;-1.214;2022-08-01T10:24:43;101863.44;;;25.67;100.00
47983;BME280;33751;50.816;-1.214;2022-08-01T10:27:11;101861.64;;;26.11;100.00
47983;BME280;33751;50.816;-1.214;2022-08-01T10:29:42;101857.87;;;26.21;100.00
47983;BME280;33751;50.816;-1.214;2022-08-01T10:32:12;101855.50;;;25.62;100.00
47983;BME280;33751;50.816;-1.214;2022-08-01T10:34:39;101853.16;;;25.21;100.00
47983;BME280;33751;50.816;-1.214;2022-08-01T10:37:07;101848.86;;;25.65;100.00
47983;BME280;33751;50.816;-1.214;2022-08-01T10:39:34;101850.47;;;25.17;100.00
47983;BME280;33751;50.816;-1.214;2022-08-01T10:42:01;101855.56;;;25.22;100.00
47983;BME280;33751;50.816;-1.214;2022-08-01T10:44:30;101860.64;;;25.26;100.00
47983;BME280;33751;50.816;-1.214;2022-08-01T10:47:06;101865.17;;;25.86;100.00
47983;BME280;33751;50.816;-1.214;2022-08-01T10:49:38;101863.77;;;25.87;100.00
47983;BME280;33751;50.816;-1.214;2022-08-01T10:52:07;101861.97;;;25.72;100.00
47983;BME280;33751;50.816;-1.214;2022-08-01T10:54:39;101860.96;;;25.78;100.00
47983;BME280;33751;50.816;-1.214;2022-08-01T10:57:07;101864.82;;;25.83;100.00
47983;BME280;33751;50.816;-1.214;2022-08-01T10:59:34;101862.42;;;26.08;100.00
47983;BME280;33751;50.816;-1.214;2022-08-01T11:02:03;101856.11;;;26.68;100.00
47983;BME280;33751;50.816;-1.214;2022-08-01T11:04:34;101864.16;;;26.60;100.00
47983;BME280;33751;50.816;-1.214;2022-08-01T11:07:05;101865.83;;;26.40;100.00
47983;BME280;33751;50.816;-1.214;2022-08-01T11:09:42;101869.49;;;26.23;100.00
47983;BME280;33751;50.816;-1.214;2022-08-01T11:12:11;101869.32;;;26.32;100.00
47983;BME280;33751;50.816;-1.214;2022-08-01T11:15:20;101870.91;;;26.55;100.00
47983;BME280;33751;50.816;-1.214;2022-08-01T11:17:48;101865.65;;;27.13;100.00
47983;BME280;33751;50.816;-1.214;2022-08-01T11:20:16;101861.84;;;27.22;95.09
47983;BME280;33751;50.816;-1.214;2022-08-01T11:23:17;101856.43;;;28.06;95.42
47983;BME280;33751;50.816;-1.214;2022-08-01T11:26:17;101847.69;;;27.47;91.65
47983;BME280;33751;50.816;-1.214;2022-08-01T11:28:46;101844.43;;;27.40;94.88
47983;BME280;33751;50.816;-1.214;2022-08-01T11:31:36;101843.33;;;27.38;88.49
47983;BME280;33751;50.816;-1.214;2022-08-01T11:34:04;101839.76;;;27.79;89.20
47983;BME280;33751;50.816;-1.214;2022-08-01T11:36:31;101841.94;;;27.58;90.35
47983;BME280;33751;50.816;-1.214;2022-08-01T11:39:14;101843.53;;;27.42;86.50
47983;BME280;33751;50.816;-1.214;2022-08-01T11:41:43;101843.24;;;27.74;89.09
47983;BME280;33751;50.816;-1.214;2022-08-01T11:44:13;101842.73;;;27.60;87.30
47983;BME280;33751;50.816;-1.214;2022-08-01T11:46:58;101837.10;;;27.57;86.13
47983;BME280;33751;50.816;-1.214;2022-08-01T11:49:33;101835.82;;;28.55;87.22
47983;BME280;33751;50.816;-1.214;2022-08-01T11:52:03;101834.08;;;28.22;82.89
47983;BME280;33751;50.816;-1.214;2022-08-01T11:54:32;101839.45;;;28.31;87.06
47983;BME280;33751;50.816;-1.214;2022-08-01T11:57:02;101838.03;;;28.43;83.26
47983;BME280;33751;50.816;-1.214;2022-08-01T11:59:37;101833.66;;;28.15;85.12
47983;BME280;33751;50.816;-1.214;2022-08-01T12:02:15;101832.24;;;28.52;84.08
47983;BME280;33751;50.816;-1.214;2022-08-01T12:04:46;101834.35;;;27.94;88.35
47983;BME280;33751;50.816;-1.214;2022-08-01T12:07:13;101838.72;;;27.82;91.79
47983;BME280;33751;50.816;-1.214;2022-08-01T12:09:40;101841.85;;;28.08;97.05
47983;BME280;33751;50.816;-1.214;2022-08-01T12:12:09;101844.24;;;28.26;93.89
47983;BME280;33751;50.816;-1.214;2022-08-01T12:14:36;101847.96;;;28.15;87.89
47983;BME280;33751;50.816;-1.214;2022-08-01T12:17:03;101842.16;;;28.33;87.69
47983;BME280;33751;50.816;-1.214;2022-08-01T12:19:31;101835.40;;;27.68;85.10
47983;BME280;33751;50.816;-1.214;2022-08-01T12:22:14;101833.41;;;28.34;82.34
47983;BME280;33751;50.816;-1.214;2022-08-01T12:24:42;101837.74;;;28.38;80.80
47983;BME280;33751;50.816;-1.214;2022-08-01T12:27:10;101837.81;;;28.71;75.02
47983;BME280;33751;50.816;-1.214;2022-08-01T12:29:39;101834.81;;;28.88;75.07
47983;BME280;33751;50.816;-1.214;2022-08-01T12:32:25;101833.78;;;29.05;78.11
47983;BME280;33751;50.816;-1.214;2022-08-01T12:34:54;101823.86;;;29.20;73.12
47983;BME280;33751;50.816;-1.214;2022-08-01T12:37:21;101820.42;;;29.47;67.85
47983;BME280;33751;50.816;-1.214;2022-08-01T12:39:48;101817.11;;;29.43;68.85
47983;BME280;33751;50.816;-1.214;2022-08-01T12:42:15;101816.29;;;28.91;66.78